createdAt,value
2018-09-11T00:01:05.956Z,101775.72
2018-09-11T00:03:34.284Z,101771.41
2018-09-11T00:06:02.605Z,101768.09
2018-09-11T00:08:30.355Z,101766.78
2018-09-11T00:10:59.280Z,101760.90
2018-09-11T00:13:27.030Z,101757.52
2018-09-11T00:15:55.934Z,101764.88
2018-09-11T00:18:23.693Z,101765.28
2018-09-11T00:20:52.024Z,101777.05
2018-09-11T00:23:21.228Z,101776.48
2018-09-11T00:25:49.324Z,101768.62
2018-09-11T00:28:17.624Z,101758.55
2018-09-11T00:30:45.964Z,101754.73
2018-09-11T00:33:14.289Z,101759.41
2018-09-11T00:35:42.045Z,101767.53
2018-09-11T00:38:10.370Z,101766.78
2018-09-11T00:40:39.266Z,101773.67
2018-09-11T00:43:07.578Z,101779.22
2018-09-11T00:45:35.931Z,101776.03
2018-09-11T00:48:04.262Z,101774.02
2018-09-11T00:50:32.579Z,101768.63
2018-09-11T00:53:00.899Z,101776.78
2018-09-11T00:55:29.236Z,101777.04
2018-09-11T00:57:57.553Z,101774.56
2018-09-11T01:00:25.885Z,101775.21
2018-09-11T01:02:53.985Z,101773.47
2018-09-11T01:05:24.071Z,101776.70
2018-09-11T01:07:51.154Z,101777.19
2018-09-11T01:10:19.568Z,101779.70
2018-09-11T01:12:47.800Z,101773.23
2018-09-11T01:15:16.130Z,101777.98
2018-09-11T01:17:44.450Z,101776.23
2018-09-11T01:20:12.257Z,101771.41
2018-09-11T01:22:40.536Z,101770.08
2018-09-11T01:25:09.435Z,101768.91
2018-09-11T01:27:37.763Z,101763.98
2018-09-11T01:30:05.545Z,101758.25
2018-09-11T01:32:34.712Z,101751.34
2018-09-11T01:35:02.226Z,101742.46
2018-09-11T01:37:31.177Z,101746.05
2018-09-11T01:39:58.902Z,101746.47
2018-09-11T01:42:27.825Z,101742.52
2018-09-11T01:44:56.152Z,101743.34
2018-09-11T01:47:24.467Z,101742.36
2018-09-11T01:49:52.792Z,101729.68
2018-09-11T01:52:21.128Z,101730.74
2018-09-11T01:54:49.460Z,101733.38
2018-09-11T01:57:17.789Z,101734.34
2018-09-11T01:59:46.111Z,101740.12
2018-09-11T02:02:14.432Z,101740.52
2018-09-11T02:04:42.756Z,101733.33
2018-09-11T02:07:11.072Z,101735.78
2018-09-11T02:09:39.396Z,101735.50
2018-09-11T02:12:07.133Z,101730.64
2018-09-11T02:14:35.457Z,101731.02
2018-09-11T02:17:03.773Z,101729.92
2018-09-11T02:19:32.669Z,101727.59
2018-09-11T02:22:00.404Z,101724.62
2018-09-11T02:24:29.110Z,101725.66
2018-09-11T02:26:57.658Z,101726.65
2018-09-11T02:29:25.485Z,101724.39
2018-09-11T02:31:54.298Z,101736.22
2018-09-11T02:34:22.061Z,101740.55
2018-09-11T02:36:50.382Z,101741.52
2018-09-11T02:39:19.277Z,101754.05
2018-09-11T02:41:47.606Z,101748.17
2018-09-11T02:44:16.154Z,101746.20
2018-09-11T02:46:44.489Z,101746.86
2018-09-11T02:49:12.014Z,101749.41
2018-09-11T02:51:40.938Z,101750.22
2018-09-11T02:54:08.671Z,101750.27
2018-09-11T02:56:36.999Z,101751.05
2018-09-11T02:59:05.332Z,101747.37
2018-09-11T03:01:34.245Z,101745.58
2018-09-11T03:04:02.571Z,101755.02
2018-09-11T03:06:30.896Z,101755.41
2018-09-11T03:09:00.060Z,101749.75
2018-09-11T03:11:27.574Z,101750.31
2018-09-11T03:13:55.896Z,101758.11
2018-09-11T03:16:23.646Z,101756.13
2018-09-11T03:18:52.007Z,101757.14
2018-09-11T03:21:20.864Z,101763.16
2018-09-11T03:23:49.187Z,101762.71
2018-09-11T03:28:45.722Z,101758.13
2018-09-11T03:31:14.165Z,101762.25
2018-09-11T03:33:41.906Z,101762.14
2018-09-11T03:36:10.798Z,101760.77
2018-09-11T03:38:39.119Z,101766.34
2018-09-11T03:41:07.662Z,101762.91
2018-09-11T03:43:35.759Z,101763.02
2018-09-11T03:46:03.524Z,101761.55
2018-09-11T03:48:32.430Z,101758.94
2018-09-11T03:51:00.178Z,101757.70
2018-09-11T03:53:29.090Z,101755.02
2018-09-11T03:55:58.143Z,101755.16
2018-09-11T03:58:25.156Z,101753.97
2018-09-11T04:00:54.057Z,101757.99
2018-09-11T04:03:21.810Z,101753.30
2018-09-11T04:05:50.730Z,101751.55
2018-09-11T04:08:19.071Z,101750.62
2018-09-11T04:10:47.388Z,101750.91
2018-09-11T04:13:15.719Z,101749.72
2018-09-11T04:15:44.041Z,101745.66
2018-09-11T04:18:12.391Z,101743.67
2018-09-11T04:20:40.710Z,101742.20
2018-09-11T04:23:08.461Z,101741.00
2018-09-11T04:25:36.905Z,101736.17
2018-09-11T04:28:05.117Z,101733.38
2018-09-11T04:30:34.009Z,101732.56
2018-09-11T04:33:02.345Z,101730.98
2018-09-11T04:35:30.117Z,101727.54
2018-09-11T04:37:59.015Z,101726.95
2018-09-11T04:40:27.324Z,101728.55
2018-09-11T04:42:55.102Z,101721.59
2018-09-11T04:45:23.982Z,101723.36
2018-09-11T04:47:51.716Z,101726.92
2018-09-11T04:50:21.448Z,101725.03
2018-09-11T04:52:49.782Z,101723.92
2018-09-11T04:55:18.115Z,101719.11
2018-09-11T04:57:46.038Z,101721.36
2018-09-11T05:00:14.816Z,101722.30
2018-09-11T05:02:42.709Z,101718.55
2018-09-11T05:05:10.906Z,101717.01
2018-09-11T05:07:39.822Z,101717.89
2018-09-11T05:10:14.447Z,101723.54
2018-09-11T05:12:42.769Z,101731.37
2018-09-11T05:15:11.108Z,101731.14
2018-09-11T05:17:38.860Z,101731.91
2018-09-11T05:20:07.201Z,101729.67
2018-09-11T05:22:36.163Z,101731.97
2018-09-11T05:25:06.800Z,101733.95
2018-09-11T05:27:35.745Z,101729.40
2018-09-11T05:30:04.049Z,101727.17
2018-09-11T05:32:32.656Z,101730.58
2018-09-11T05:35:00.345Z,101724.82
2018-09-11T05:37:28.510Z,101722.13
2018-09-11T05:39:57.044Z,101733.45
2018-09-11T05:42:25.149Z,101732.58
2018-09-11T05:44:54.057Z,101731.48
2018-09-11T05:47:21.794Z,101729.66
2018-09-11T05:49:50.126Z,101726.97
2018-09-11T05:52:19.023Z,101728.75
2018-09-11T05:54:47.372Z,101722.73
2018-09-11T05:57:15.130Z,101720.55
2018-09-11T05:59:43.477Z,101725.85
2018-09-11T06:02:11.808Z,101729.94
2018-09-11T06:04:40.741Z,101727.17
2018-09-11T06:07:08.492Z,101725.83
2018-09-11T06:09:37.396Z,101730.15
2018-09-11T06:12:05.730Z,101726.77
2018-09-11T06:14:34.087Z,101726.44
2018-09-11T06:17:02.424Z,101726.33
2018-09-11T06:19:30.773Z,101720.61
2018-09-11T06:21:58.511Z,101729.13
2018-09-11T06:24:27.418Z,101725.89
2018-09-11T06:26:55.753Z,101724.22
2018-09-11T06:29:24.370Z,101726.66
2018-09-11T06:31:53.343Z,101730.33
2018-09-11T06:34:21.313Z,101724.83
2018-09-11T06:36:49.426Z,101728.34
2018-09-11T06:39:18.341Z,101730.97
2018-09-11T06:41:46.704Z,101728.93
2018-09-11T06:44:15.025Z,101724.28
2018-09-11T06:46:42.781Z,101724.66
2018-09-11T06:49:11.227Z,101722.16
2018-09-11T06:51:40.022Z,101724.68
2018-09-11T06:54:07.768Z,101725.03
2018-09-11T06:56:36.097Z,101729.45
2018-09-11T06:59:05.058Z,101730.62
2018-09-11T07:01:33.883Z,101728.82
2018-09-11T07:04:02.818Z,101729.86
2018-09-11T07:06:31.036Z,101731.77
2018-09-11T07:08:59.945Z,101728.91
2018-09-11T07:11:31.872Z,101725.94
2018-09-11T07:13:59.967Z,101722.91
2018-09-11T07:16:28.296Z,101723.52
2018-09-11T07:18:56.077Z,101726.16
2018-09-11T07:21:25.008Z,101729.78
2018-09-11T07:23:52.745Z,101732.45
2018-09-11T07:26:21.082Z,101729.25
2018-09-11T07:28:49.422Z,101734.84
2018-09-11T07:31:18.555Z,101737.32
2018-09-11T07:33:48.247Z,101743.98
2018-09-11T07:36:16.037Z,101739.91
2018-09-11T07:38:43.746Z,101741.13
2018-09-11T07:41:12.646Z,101754.41
2018-09-11T07:43:41.283Z,101757.77
2018-09-11T07:46:09.626Z,101756.92
2018-09-11T07:48:38.585Z,101757.50
2018-09-11T07:51:06.315Z,101758.98
2018-09-11T07:53:34.654Z,101752.93
2018-09-11T07:56:02.982Z,101746.75
2018-09-11T07:58:30.724Z,101746.45
2018-09-11T08:00:59.962Z,101744.47
2018-09-11T08:03:28.273Z,101737.10
2018-09-11T08:05:56.604Z,101741.16
2018-09-11T08:08:27.291Z,101741.79
2018-09-11T08:10:55.626Z,101746.11
2018-09-11T08:13:23.951Z,101744.73
2018-09-11T08:15:52.847Z,101743.02
2018-09-11T08:18:20.587Z,101748.43
2018-09-11T08:20:49.496Z,101759.05
2018-09-11T08:23:17.822Z,101757.30
2018-09-11T08:25:45.569Z,101753.38
2018-09-11T08:28:13.896Z,101760.84
2018-09-11T08:30:42.809Z,101760.47
2018-09-11T08:33:11.140Z,101762.66
2018-09-11T08:35:39.481Z,101757.64
2018-09-11T08:38:07.245Z,101754.37
2018-09-11T08:40:36.661Z,101751.57
2018-09-11T08:43:04.990Z,101749.77
2018-09-11T08:45:34.193Z,101753.46
2018-09-11T08:48:02.723Z,101753.30
2018-09-11T08:50:31.068Z,101752.70
2018-09-11T08:52:58.812Z,101749.50
2018-09-11T08:55:28.332Z,101749.30
2018-09-11T08:57:56.871Z,101740.88
2018-09-11T09:00:25.591Z,101734.95
2018-09-11T09:02:53.933Z,101735.48
2018-09-11T09:05:23.356Z,101737.84
2018-09-11T09:07:51.920Z,101732.17
2018-09-11T09:10:20.276Z,101726.06
2018-09-11T09:12:48.924Z,101723.03
2018-09-11T09:15:17.053Z,101722.77
2018-09-11T09:17:46.321Z,101729.38
2018-09-11T09:20:14.901Z,101733.92
2018-09-11T09:22:44.815Z,101733.81
2018-09-11T09:25:12.777Z,101731.94
2018-09-11T09:27:41.104Z,101727.89
2018-09-11T09:30:10.056Z,101724.66
2018-09-11T09:35:29.421Z,101726.83
2018-09-11T09:37:57.816Z,101726.01
2018-09-11T09:40:26.346Z,101722.50
2018-09-11T09:42:54.685Z,101727.44
2018-09-11T09:45:23.885Z,101718.23
2018-09-11T09:47:52.226Z,101727.11
2018-09-11T09:50:20.598Z,101724.69
2018-09-11T09:52:48.925Z,101721.61
2018-09-11T09:55:18.491Z,101723.72
2018-09-11T09:57:48.021Z,101723.36
2018-09-11T10:00:16.338Z,101728.37
2018-09-11T10:02:44.670Z,101730.81
2018-09-11T10:05:13.038Z,101724.63
2018-09-11T10:07:41.673Z,101718.89
2018-09-11T10:10:09.995Z,101722.00
2018-09-11T10:12:38.339Z,101715.11
2018-09-11T10:15:06.668Z,101712.86
2018-09-11T10:17:35.056Z,101706.02
2018-09-11T10:20:03.384Z,101711.68
2018-09-11T10:22:31.702Z,101718.19
2018-09-11T10:24:59.446Z,101718.13
2018-09-11T10:27:28.411Z,101716.31
2018-09-11T10:29:56.699Z,101711.87
2018-09-11T10:32:25.065Z,101709.35
2018-09-11T10:34:53.388Z,101710.73
2018-09-11T10:37:21.712Z,101726.85
2018-09-11T10:39:51.131Z,101717.42
2018-09-11T10:42:20.775Z,101713.61
2018-09-11T10:44:48.661Z,101731.94
2018-09-11T10:47:16.936Z,101728.39
2018-09-11T10:49:45.713Z,101725.18
2018-09-11T10:52:14.032Z,101723.27
2018-09-11T10:54:43.346Z,101714.71
2018-09-11T10:57:11.754Z,101725.62
2018-09-11T10:59:39.509Z,101731.09
2018-09-11T11:02:08.948Z,101721.43
2018-09-11T11:04:37.274Z,101729.88
2018-09-11T11:07:05.662Z,101725.34
2018-09-11T11:09:33.979Z,101727.39
2018-09-11T11:12:02.297Z,101721.59
2018-09-11T11:14:32.127Z,101722.41
2018-09-11T11:16:58.956Z,101724.69
2018-09-11T11:19:26.701Z,101726.53
2018-09-11T11:21:55.630Z,101730.70
2018-09-11T11:24:23.377Z,101725.25
2018-09-11T11:26:52.304Z,101724.63
2018-09-11T11:29:20.613Z,101722.19
2018-09-11T11:31:48.940Z,101716.41
2018-09-11T11:34:17.505Z,101709.77
2018-09-11T11:36:45.425Z,101710.52
2018-09-11T11:39:14.143Z,101709.71
2018-09-11T11:41:42.476Z,101721.34
2018-09-11T11:44:10.227Z,101697.25
2018-09-11T11:46:39.136Z,101698.30
2018-09-11T11:49:07.461Z,101694.14
2018-09-11T11:51:35.788Z,101686.39
2018-09-11T11:54:04.114Z,101691.52
2018-09-11T11:56:33.118Z,101691.64
2018-09-11T11:59:01.511Z,101684.92
2018-09-11T12:01:30.911Z,101686.45
2018-09-11T12:04:00.153Z,101679.12
2018-09-11T12:06:28.480Z,101673.42
2018-09-11T12:08:56.226Z,101673.23
2018-09-11T12:11:25.630Z,101659.58
2018-09-11T12:13:53.750Z,101667.83
2018-09-11T12:16:21.849Z,101675.62
2018-09-11T12:18:50.408Z,101675.23
2018-09-11T12:21:18.960Z,101672.92
2018-09-11T12:23:47.524Z,101670.71
2018-09-11T12:26:16.688Z,101675.06
2018-09-11T12:28:45.021Z,101672.77
2018-09-11T12:31:13.569Z,101676.52
2018-09-11T12:33:41.868Z,101679.73
2018-09-11T12:36:10.200Z,101694.30
2018-09-11T12:38:39.122Z,101688.02
2018-09-11T12:41:07.431Z,101670.66
2018-09-11T12:43:35.753Z,101685.66
2018-09-11T12:46:05.445Z,101676.09
2018-09-11T12:48:33.017Z,101670.97
2018-09-11T12:51:03.435Z,101684.67
2018-09-11T12:53:30.523Z,101667.14
2018-09-11T12:55:59.376Z,101663.00
2018-09-11T12:58:28.578Z,101669.11
2018-09-11T13:00:56.702Z,101674.85
2018-09-11T13:03:24.463Z,101661.52
2018-09-11T13:05:54.164Z,101661.53
2018-09-11T13:08:23.262Z,101667.53
2018-09-11T13:10:51.029Z,101660.45
2018-09-11T13:13:20.440Z,101671.75
2018-09-11T13:15:49.008Z,101684.91
2018-09-11T13:18:17.561Z,101696.16
2018-09-11T13:20:46.342Z,101698.25
2018-09-11T13:23:14.088Z,101706.94
2018-09-11T13:25:43.045Z,101715.10
2018-09-11T13:28:11.967Z,101700.17
2018-09-11T13:30:41.590Z,101693.85
2018-09-11T13:33:09.179Z,101683.94
2018-09-11T13:35:37.705Z,101686.57
2018-09-11T13:38:06.602Z,101672.60
2018-09-11T13:40:34.953Z,101676.53
2018-09-11T13:43:02.746Z,101670.70
2018-09-11T13:45:31.645Z,101674.23
2018-09-11T13:47:59.990Z,101667.44
2018-09-11T13:50:28.607Z,101662.08
2018-09-11T13:52:56.980Z,101659.88
2018-09-11T13:55:25.267Z,101664.84
2018-09-11T13:57:54.629Z,101656.52
2018-09-11T14:00:23.529Z,101648.11
2018-09-11T14:02:52.156Z,101642.12
2018-09-11T14:05:20.514Z,101629.65
2018-09-11T14:07:48.985Z,101633.61
2018-09-11T14:10:17.329Z,101628.26
2018-09-11T14:12:45.197Z,101629.98
2018-09-11T14:15:13.586Z,101634.47
2018-09-11T14:17:42.320Z,101634.34
2018-09-11T14:20:10.217Z,101638.39
2018-09-11T14:22:41.635Z,101640.58
2018-09-11T14:25:08.371Z,101631.42
2018-09-11T14:27:36.694Z,101625.59
2018-09-11T14:30:05.610Z,101621.34
2018-09-11T14:32:34.271Z,101617.66
2018-09-11T14:35:02.606Z,101626.61
2018-09-11T14:37:31.047Z,101626.00
2018-09-11T14:39:59.375Z,101628.20
2018-09-11T14:42:28.448Z,101636.61
2018-09-11T14:44:57.287Z,101625.29
2018-09-11T14:47:28.820Z,101634.89
2018-09-11T14:49:57.159Z,101632.14
2018-09-11T14:52:25.868Z,101630.26
2018-09-11T14:54:54.206Z,101617.02
2018-09-11T14:57:22.569Z,101619.00
2018-09-11T14:59:53.347Z,101620.91
2018-09-11T15:02:34.811Z,101625.00
2018-09-11T15:05:03.959Z,101618.61
2018-09-11T15:07:38.249Z,101622.94
2018-09-11T15:10:06.597Z,101614.15
2018-09-11T15:12:35.940Z,101603.13
2018-09-11T15:15:04.330Z,101609.38
2018-09-11T15:17:33.471Z,101616.98
2018-09-11T15:20:02.669Z,101604.62
2018-09-11T15:22:31.476Z,101611.86
2018-09-11T15:24:58.967Z,101597.59
2018-09-11T15:27:28.359Z,101602.30
2018-09-11T15:29:56.704Z,101603.09
2018-09-11T15:32:25.610Z,101609.88
2018-09-11T15:34:53.939Z,101613.62
2018-09-11T15:37:22.292Z,101611.94
2018-09-11T15:39:51.084Z,101605.69
2018-09-11T15:42:20.394Z,101602.80
2018-09-11T15:44:49.004Z,101597.43
2018-09-11T15:47:17.695Z,101578.61
2018-09-11T15:49:46.020Z,101589.73
2018-09-11T15:52:14.578Z,101589.70
2018-09-11T15:54:43.645Z,101574.28
2018-09-11T15:57:12.019Z,101553.75
2018-09-11T15:59:40.338Z,101547.02
2018-09-11T16:02:08.678Z,101553.05
2018-09-11T16:04:37.047Z,101552.31
2018-09-11T16:07:04.931Z,101551.16
2018-09-11T16:09:33.124Z,101550.04
2018-09-11T16:12:02.044Z,101553.73
2018-09-11T16:14:31.120Z,101561.63
2018-09-11T16:16:58.969Z,101551.95
2018-09-11T16:19:27.061Z,101543.11
2018-09-11T16:21:54.834Z,101550.17
2018-09-11T16:24:23.865Z,101547.02
2018-09-11T16:26:51.611Z,101545.55
2018-09-11T16:29:21.233Z,101545.88
2018-09-11T16:31:48.943Z,101559.06
2018-09-11T16:34:18.085Z,101552.21
2018-09-11T16:36:46.189Z,101540.71
2018-09-11T16:39:16.395Z,101534.40
2018-09-11T16:41:43.345Z,101529.30
2018-09-11T16:44:11.888Z,101520.73
2018-09-11T16:46:41.613Z,101516.64
2018-09-11T16:49:09.128Z,101510.92
2018-09-11T16:51:36.869Z,101507.13
2018-09-11T16:54:05.201Z,101520.07
2018-09-11T16:56:33.557Z,101530.14
2018-09-11T17:01:50.965Z,101520.52
2018-09-11T17:04:19.657Z,101527.16
2018-09-11T17:06:48.011Z,101539.66
2018-09-11T17:09:16.628Z,101525.59
2018-09-11T17:11:44.387Z,101524.25
2018-09-11T17:14:15.121Z,101520.34
2018-09-11T17:16:44.341Z,101522.56
2018-09-11T17:19:13.573Z,101521.94
2018-09-11T17:21:42.121Z,101524.86
2018-09-11T17:24:11.112Z,101528.37
2018-09-11T17:26:39.456Z,101522.75
2018-09-11T17:29:14.060Z,101517.20
2018-09-11T17:31:38.361Z,101517.59
2018-09-11T17:34:06.753Z,101527.07
2018-09-11T17:36:35.450Z,101530.05
2018-09-11T17:39:22.414Z,101517.15
2018-09-11T17:44:38.100Z,101513.56
2018-09-11T17:47:05.842Z,101515.98
2018-09-11T17:49:34.767Z,101503.30
2018-09-11T17:52:04.234Z,101508.91
2018-09-11T17:54:32.707Z,101519.97
2018-09-11T17:57:01.022Z,101517.32
2018-09-11T17:59:29.541Z,101513.41
2018-09-11T18:01:58.328Z,101511.44
2018-09-11T18:04:26.628Z,101508.34
2018-09-11T18:06:54.982Z,101506.26
2018-09-11T18:09:23.300Z,101497.07
2018-09-11T18:11:51.695Z,101494.52
2018-09-11T18:14:20.060Z,101493.91
2018-09-11T18:16:48.398Z,101509.99
2018-09-11T18:19:16.742Z,101508.45
2018-09-11T18:21:45.128Z,101513.10
2018-09-11T18:24:13.934Z,101516.23
2018-09-11T18:26:42.284Z,101513.61
2018-09-11T18:29:10.697Z,101518.42
2018-09-11T18:31:39.409Z,101512.06
2018-09-11T18:34:07.746Z,101508.34
2018-09-11T18:36:36.151Z,101502.44
2018-09-11T18:39:04.692Z,101506.27
2018-09-11T18:41:34.733Z,101496.93
2018-09-11T18:44:03.555Z,101492.23
2018-09-11T18:46:31.711Z,101493.23
2018-09-11T18:49:00.093Z,101480.19
2018-09-11T18:51:28.459Z,101470.78
2018-09-11T18:53:56.793Z,101478.58
2018-09-11T18:56:25.364Z,101491.66
2018-09-11T18:58:53.469Z,101485.08
2018-09-11T19:01:21.920Z,101481.55
2018-09-11T19:09:44.376Z,101481.93
2018-09-11T19:12:11.899Z,101475.72
2018-09-11T19:14:41.470Z,101476.16
2018-09-11T19:17:09.229Z,101484.55
2018-09-11T19:19:38.155Z,101486.63
2018-09-11T19:22:05.936Z,101492.50
2018-09-11T19:24:37.372Z,101489.76
2018-09-11T19:27:06.453Z,101496.41
2018-09-11T19:32:30.675Z,101489.99
2018-09-11T19:34:59.518Z,101499.30
2018-09-11T19:37:27.900Z,101493.28
2018-09-11T19:39:56.253Z,101490.19
2018-09-11T19:42:26.520Z,101485.96
2018-09-11T19:44:54.816Z,101487.14
2018-09-11T19:47:23.434Z,101478.77
2018-09-11T19:49:52.343Z,101488.30
2018-09-11T19:52:20.715Z,101499.09
2018-09-11T19:54:49.075Z,101498.03
2018-09-11T19:57:18.403Z,101495.25
2018-09-11T19:59:46.676Z,101492.38
2018-09-11T20:02:15.010Z,101482.45
2018-09-11T20:04:43.250Z,101487.06
2018-09-11T20:07:12.547Z,101491.05
2018-09-11T20:09:40.870Z,101490.50
2018-09-11T20:12:09.187Z,101483.67
2018-09-11T20:14:36.930Z,101478.75
2018-09-11T20:17:05.264Z,101474.28
2018-09-11T20:19:34.190Z,101469.23
2018-09-11T20:22:02.208Z,101462.11
2018-09-11T20:24:30.256Z,101464.41
2018-09-11T20:26:59.507Z,101460.53
2018-09-11T20:29:27.854Z,101476.91
2018-09-11T20:31:56.183Z,101471.63
2018-09-11T20:34:23.931Z,101472.50
2018-09-11T20:36:52.275Z,101474.75
2018-09-11T20:39:21.301Z,101462.43
2018-09-11T20:41:50.421Z,101466.83
2018-09-11T20:44:18.204Z,101466.25
2018-09-11T20:46:47.093Z,101471.84
2018-09-11T20:49:15.411Z,101469.69
2018-09-11T20:51:44.694Z,101469.98
2018-09-11T20:54:13.022Z,101473.59
2018-09-11T20:56:41.333Z,101464.93
2018-09-11T20:59:09.101Z,101468.13
2018-09-11T21:01:37.439Z,101465.86
2018-09-11T21:04:05.775Z,101460.61
2018-09-11T21:06:34.690Z,101465.62
2018-09-11T21:09:03.014Z,101453.36
2018-09-11T21:11:31.329Z,101462.70
2018-09-11T21:13:59.625Z,101463.50
2018-09-11T21:16:27.943Z,101469.58
2018-09-11T21:18:56.256Z,101474.00
2018-09-11T21:21:24.591Z,101483.59
2018-09-11T21:23:52.927Z,101461.30
2018-09-11T21:26:20.670Z,101466.17
2018-09-11T21:28:49.583Z,101484.70
2018-09-11T21:31:17.913Z,101473.50
2018-09-11T21:33:45.684Z,101466.47
2018-09-11T21:36:14.581Z,101475.30
2018-09-11T21:38:42.338Z,101481.06
2018-09-11T21:41:11.245Z,101481.61
2018-09-11T21:43:39.575Z,101475.55
2018-09-11T21:46:07.962Z,101491.04
2018-09-11T21:48:36.236Z,101483.95
2018-09-11T21:51:03.987Z,101477.34
2018-09-11T21:53:32.899Z,101483.12
2018-09-11T21:56:01.235Z,101495.84
2018-09-11T21:58:28.970Z,101499.14
2018-09-11T22:00:57.299Z,101500.73
2018-09-11T22:03:26.210Z,101496.16
2018-09-11T22:05:54.533Z,101497.20
2018-09-11T22:08:22.863Z,101500.34
2018-09-11T22:10:50.598Z,101507.27
2018-09-11T22:13:18.981Z,101499.83
2018-09-11T22:15:47.248Z,101516.16
2018-09-11T22:18:16.110Z,101522.53
2018-09-11T22:20:43.861Z,101518.11
2018-09-11T22:23:12.763Z,101525.35
2018-09-11T22:25:40.510Z,101508.88
2018-09-11T22:28:09.427Z,101510.87
2018-09-11T22:30:37.747Z,101515.61
2018-09-11T22:33:06.053Z,101512.67
2018-09-11T22:35:33.794Z,101495.62
2018-09-11T22:38:02.113Z,101496.75
2018-09-11T22:40:30.639Z,101500.81
2018-09-11T22:42:58.819Z,101494.84
2018-09-11T22:45:27.328Z,101494.13
2018-09-11T22:47:56.024Z,101508.66
2018-09-11T22:50:24.347Z,101506.05
2018-09-11T22:52:52.662Z,101494.56
2018-09-11T22:55:20.993Z,101493.98
2018-09-11T22:57:48.791Z,101502.48
2018-09-11T23:00:17.066Z,101491.48
2018-09-11T23:02:45.959Z,101491.12
2018-09-11T23:05:14.278Z,101496.81
2018-09-11T23:07:42.596Z,101493.50
2018-09-11T23:10:10.923Z,101492.92
2018-09-11T23:12:39.239Z,101493.09
2018-09-11T23:15:07.557Z,101493.30
2018-09-11T23:17:35.892Z,101494.92
2018-09-11T23:20:03.619Z,101508.79
2018-09-11T23:22:32.527Z,101507.27
2018-09-11T23:25:00.842Z,101496.27
2018-09-11T23:27:28.581Z,101492.48
2018-09-11T23:29:57.477Z,101493.11
2018-09-11T23:32:25.793Z,101491.58
2018-09-11T23:34:54.109Z,101474.02
2018-09-11T23:37:22.425Z,101479.48
2018-09-11T23:39:50.759Z,101476.89
2018-09-11T23:42:19.077Z,101474.72
2018-09-11T23:44:47.394Z,101462.12
2018-09-11T23:47:15.711Z,101457.75
2018-09-11T23:49:44.025Z,101462.84
2018-09-11T23:52:12.345Z,101467.77
2018-09-11T23:54:40.663Z,101470.53
2018-09-11T23:57:08.999Z,101472.90
2018-09-11T23:59:36.729Z,101463.08
